createdAt,value
2022-07-29T00:09:30.830Z,3.17
2022-07-29T00:20:28.474Z,3.15
2022-07-29T00:31:30.054Z,3.15
2022-07-29T00:42:31.090Z,3.15
2022-07-29T00:53:32.590Z,3.15
2022-07-29T01:04:33.945Z,3.15
2022-07-29T01:15:30.068Z,3.15
2022-07-29T01:26:32.537Z,3.15
2022-07-29T01:37:33.593Z,3.15
2022-07-29T01:48:34.839Z,3.14
2022-07-29T01:59:36.173Z,3.14
2022-07-29T02:10:38.370Z,3.14
2022-07-29T02:21:39.320Z,3.13
2022-07-29T02:32:29.042Z,3.13
2022-07-29T02:43:29.511Z,3.13
2022-07-29T02:54:26.446Z,3.12
2022-07-29T03:05:24.335Z,3.12
2022-07-29T03:16:28.521Z,3.09
2022-07-29T03:27:30.168Z,3.11
2022-07-29T03:38:30.309Z,3.11
2022-07-29T03:49:31.654Z,3.10
2022-07-29T04:00:33.507Z,3.10
2022-07-29T04:11:33.445Z,3.10
2022-07-29T04:22:39.618Z,3.10
2022-07-29T04:33:36.917Z,3.10
2022-07-29T04:44:17.531Z,3.10
2022-07-29T04:55:14.848Z,3.11
2022-07-29T05:06:14.758Z,3.11
2022-07-29T05:16:52.191Z,3.11
2022-07-29T05:27:53.278Z,3.13
2022-07-29T05:38:52.665Z,3.14
2022-07-29T05:49:53.432Z,3.15
2022-07-29T06:00:46.889Z,3.15
2022-07-29T06:11:47.996Z,3.17
2022-07-29T06:22:49.470Z,3.18
2022-07-29T06:33:51.524Z,3.19
2022-07-29T06:44:55.269Z,3.22
2022-07-29T06:55:47.809Z,3.23
2022-07-29T07:06:47.433Z,3.25
2022-07-29T07:17:44.020Z,3.25
2022-07-29T07:28:39.961Z,3.27
2022-07-29T07:39:38.611Z,3.28
2022-07-29T07:50:38.782Z,3.29
2022-07-29T08:01:24.572Z,3.31
2022-07-29T08:11:58.646Z,3.32
2022-07-29T08:22:53.928Z,3.34
2022-07-29T08:33:50.360Z,3.38
2022-07-29T08:44:47.456Z,3.33
2022-07-29T08:55:44.949Z,3.33
2022-07-29T09:06:39.104Z,3.34
2022-07-29T09:17:22.319Z,3.34
2022-07-29T09:28:21.007Z,3.33
2022-07-29T09:39:20.651Z,3.34
2022-07-29T09:50:20.758Z,3.34
2022-07-29T10:01:17.489Z,3.34
2022-07-29T10:12:18.783Z,3.34
2022-07-29T10:23:18.077Z,3.33
2022-07-29T10:34:17.923Z,3.39
2022-07-29T10:45:18.162Z,3.34
2022-07-29T10:56:16.057Z,3.34
2022-07-29T11:07:10.850Z,3.33
2022-07-29T11:18:04.813Z,3.34
2022-07-29T11:29:02.404Z,3.34
2022-07-29T11:40:02.069Z,3.34
2022-07-29T11:50:51.602Z,3.34
2022-07-29T12:01:51.646Z,3.34
2022-07-29T12:12:41.773Z,3.34
2022-07-29T12:23:19.693Z,3.34
2022-07-29T12:34:10.840Z,3.34
2022-07-29T12:45:05.257Z,3.34
2022-07-29T12:55:43.469Z,3.34
2022-07-29T13:06:36.330Z,3.34
2022-07-29T13:17:27.611Z,3.34
2022-07-29T13:28:32.249Z,3.34
2022-07-29T13:39:16.897Z,3.34
2022-07-29T13:50:18.077Z,3.35
2022-07-29T14:01:08.127Z,3.34
2022-07-29T14:12:02.609Z,3.34
2022-07-29T14:22:56.381Z,3.34
2022-07-29T14:33:43.565Z,3.34
2022-07-29T14:44:44.810Z,3.34
2022-07-29T14:55:47.140Z,3.34
2022-07-29T15:06:46.557Z,3.34
2022-07-29T15:17:43.864Z,3.34
2022-07-29T15:28:40.690Z,3.34
2022-07-29T15:39:14.250Z,3.34
2022-07-29T15:50:13.038Z,3.34
2022-07-29T16:01:06.531Z,3.35
2022-07-29T16:12:02.526Z,3.38
2022-07-29T16:23:04.162Z,3.37
2022-07-29T16:33:58.975Z,3.34
2022-07-29T16:44:54.265Z,3.38
2022-07-29T16:55:46.652Z,3.38
2022-07-29T17:06:44.150Z,3.37
2022-07-29T17:17:39.140Z,3.36
2022-07-29T17:28:33.508Z,3.35
2022-07-29T17:39:33.049Z,3.34
2022-07-29T17:50:16.419Z,3.34
2022-07-29T18:01:13.855Z,3.34
2022-07-29T18:12:13.265Z,3.33
2022-07-29T18:23:12.642Z,3.32
2022-07-29T18:34:12.823Z,3.31
2022-07-29T18:45:12.221Z,3.30
2022-07-29T18:56:00.381Z,3.28
2022-07-29T19:06:54.717Z,3.28
2022-07-29T19:17:59.040Z,3.28
2022-07-29T19:28:59.152Z,3.27
2022-07-29T19:39:57.957Z,3.27
2022-07-29T19:50:52.999Z,3.26
2022-07-29T20:01:50.678Z,3.26
2022-07-29T20:12:43.756Z,3.26
2022-07-29T20:23:41.911Z,3.26
2022-07-29T20:34:40.359Z,3.25
2022-07-29T20:45:36.635Z,3.25
2022-07-29T20:56:26.937Z,3.24
2022-07-29T21:07:25.825Z,3.23
2022-07-29T21:18:24.509Z,3.23
2022-07-29T21:29:26.009Z,3.23
2022-07-29T21:40:26.273Z,3.22
2022-07-29T21:51:24.659Z,3.22
2022-07-29T22:02:26.976Z,3.22
2022-07-29T22:13:25.628Z,3.21
2022-07-29T22:24:25.763Z,3.21
2022-07-29T22:35:26.424Z,3.21
2022-07-29T22:46:27.591Z,3.20
2022-07-29T22:57:24.447Z,3.19
2022-07-29T23:08:24.726Z,3.19
2022-07-29T23:19:22.901Z,3.18
2022-07-29T23:29:58.402Z,3.17
2022-07-29T23:40:58.495Z,3.17
2022-07-29T23:51:59.729Z,3.17
